EPRZ/RZE METAR and TAF weather

Enter ICAO airport designator
Station Type Date Time Source
EPRZ METAR 2019/08/17 10:30 UTC NOAA

EPRZ 171030Z 26005KT 170V340 9999 FEW036 23/12 Q1017


Station Type Date Time Source
EPRZ Decoded METAR 2019/08/17 10:30 UTC NOAA

Station name not available
Aug 17, 2019 - 06:30 AM EDT / 2019.08.17 1030 UTC
Wind: from the W (260 degrees) at 6 MPH (5 KT) (direction variable):0
Visibility: greater than 7 mile(s):0
Sky conditions: mostly clear
Temperature: 73 F (23 C)
Dew Point: 53 F (12 C)
Relative Humidity: 49%
Pressure (altimeter): 30.03 in. Hg (1017 hPa)
ob: EPRZ 171030Z 26005KT 170V340 9999 FEW036 23/12 Q1017
cycle: 10

Station Type Date Time Source
EPRZ TAF 2019/08/17 06:33 UTC NOAA

TAF EPRZ 170530Z 1706/1806 20004KT CAVOK PROB30
TEMPO 1711/1715 SCT040TCU PROB30 1801/1805 3000 BR

Example: see airport list